Andrea Chouest — WDE4574 — position and weather

sailwx.info

Track history (hours):
 
Tides and Currents Weather Stations Pressure Air Temp Water Temp Dewpoint Dewpoint Depression Visibility Wind Speed Wind Dir Waves Ship Positions

Andrea Chouest

Owner: Nautical Solutions L.L.C., Galliano, LA. More information available from US FCC via Universal Licensing System and Coast Guard Vessel Documentation Center.

Last reported at 2018-Apr-24 13:01 UTC. Time now 2018-Apr-26 11:44 UTC.
Position N 32°51' E 034°60'.

Length 85 m; draft 3.7 m.

Type: Cargo ship. MMSI: 368422000.

Date/timePositionNaut miles runAvg speedWind from/ knotsBaromVisibWave heightAir tempDewpointWater temp
2018-Apr-24 13:01N 32°51' E 034°60'010.1
2018-Apr-24 13:00N 32°51' E 034°60'5 9.3
2018-Apr-24 12:26N 32°52' E 034°53'3 7.5
2018-Apr-24 12:00N 32°53' E 034°50'4 8.7
2018-Apr-24 11:30N 32°53' E 034°44'510.3
2018-Apr-24 11:00N 32°54' E 034°38'510.5
2018-Apr-24 10:29N 32°55' E 034°32'2510.6
2018-Apr-24 08:09N 32°58' E 034°03'1110.4
2018-Apr-24 07:05N 32°59' E 033°50'110.4
2018-Apr-24 07:00N 32°59' E 033°49'7 4.5
2018-Apr-24 05:28N 33°00' E 033°41'0 0.0
2018-Apr-24 05:00N 33°00' E 033°41'0 0.1
2018-Apr-24 04:30N 33°00' E 033°41'0 0.1
2018-Apr-24 03:30N 32°60' E 033°40'0 0.0
2018-Apr-24 02:19N 32°60' E 033°40'0 0.0
2018-Apr-24 02:00N 32°60' E 033°40'0 0.0
2018-Apr-24 01:29N 32°60' E 033°40'0 0.0
2018-Apr-24 01:00N 32°60' E 033°40'0 0.0
2018-Apr-24 00:30N 32°60' E 033°40'0 0.0
2018-Apr-24 00:00N 32°60' E 033°40'0 0.0
2018-Apr-23 23:30N 32°60' E 033°40'0 0.0
2018-Apr-23 15:10N 33°00' E 033°40'0 0.0
2018-Apr-23 15:00N 33°00' E 033°40'0 0.0
2018-Apr-23 14:24N 33°00' E 033°40'54 2.5
2018-Apr-22 17:16N 32°54' E 034°44'2 9.3
2018-Apr-22 17:00N 32°53' E 034°47'5 9.3
2018-Apr-22 16:30N 32°53' E 034°52'5 9.3
2018-Apr-22 16:00N 32°52' E 034°58'  
2018-Apr-19 19:25N 32°51' E 034°60'4 8.5
2018-Apr-19 18:59N 32°53' E 034°56'4 8.7
2018-Apr-19 18:30N 32°54' E 034°51'5 8.6
2018-Apr-19 17:58N 32°55' E 034°45'4 8.6
2018-Apr-19 17:29N 32°55' E 034°40'5 8.7
2018-Apr-19 16:53N 32°56' E 034°34'3 8.6
2018-Apr-19 16:29N 32°56' E 034°30'5 9.4
2018-Apr-19 16:00N 32°57' E 034°25'510.4
2018-Apr-19 15:30N 32°58' E 034°19'510.4
2018-Apr-19 15:00N 32°59' E 034°13'510.4
2018-Apr-19 14:30N 32°60' E 034°07'610.4
2018-Apr-19 13:56N 33°00' E 033°60'410.3
2018-Apr-19 13:30N 33°01' E 033°54'510.1
2018-Apr-19 12:58N 33°00' E 033°48'4 8.6
2018-Apr-19 12:28N 32°60' E 033°43'2 3.8
2018-Apr-19 12:00N 33°00' E 033°41'0 0.2
2018-Apr-19 11:30N 33°00' E 033°41'0 0.0
2018-Apr-19 11:00N 33°00' E 033°41'0 0.0
2018-Apr-19 10:27N 33°00' E 033°41'0 0.0
2018-Apr-19 09:16N 33°00' E 033°41'0 0.2
2018-Apr-19 09:00N 33°00' E 033°41'0 0.1
2018-Apr-19 04:46N 33°00' E 033°41'0 0.0
2018-Apr-19 04:30N 33°00' E 033°41'0 0.0
2018-Apr-19 04:00N 33°00' E 033°41'0 0.1
2018-Apr-19 02:50N 33°00' E 033°41'0 0.0
2018-Apr-19 02:21N 33°00' E 033°41'0 0.0
2018-Apr-19 02:00N 33°00' E 033°41'0 0.0
2018-Apr-19 00:56N 33°00' E 033°41'0 0.0
2018-Apr-19 00:30N 33°00' E 033°41'0 0.0
2018-Apr-18 23:27N 33°00' E 033°41'0 0.0
2018-Apr-18 23:00N 33°00' E 033°41'0 0.0
2018-Apr-18 22:31N 33°00' E 033°41'0 0.0
2018-Apr-18 22:01N 33°00' E 033°41'0 0.0
2018-Apr-18 21:31N 33°00' E 033°41'0 0.0
2018-Apr-18 21:01N 33°00' E 033°41'0 0.0
2018-Apr-18 20:13N 33°00' E 033°41'0 0.1
2018-Apr-18 20:00N 33°00' E 033°41'0 0.0
2018-Apr-18 19:30N 33°00' E 033°41'0 0.0
2018-Apr-18 19:00N 33°00' E 033°41'0 0.0
2018-Apr-18 18:30N 33°00' E 033°41'0 0.0
2018-Apr-18 16:43N 33°00' E 033°41'0 0.1
2018-Apr-18 16:30N 33°00' E 033°41'0 0.0
2018-Apr-18 15:58N 33°00' E 033°41'0 0.1
2018-Apr-18 15:30N 33°00' E 033°41'0 0.1
2018-Apr-18 15:00N 33°00' E 033°41'0 0.3
2018-Apr-18 14:30N 33°00' E 033°41'0 0.3
2018-Apr-18 13:59N 33°00' E 033°41'0 0.0
2018-Apr-18 13:30N 33°00' E 033°41'0 0.0
2018-Apr-18 12:59N 33°00' E 033°41'0 0.1
2018-Apr-18 12:29N 33°00' E 033°41'0 0.1
2018-Apr-18 08:19N 33°00' E 033°41'0 0.0
2018-Apr-18 07:59N 33°00' E 033°41'0 0.2
2018-Apr-18 07:29N 33°00' E 033°41'0 0.2
2018-Apr-18 07:00N 33°00' E 033°41'0 0.0
2018-Apr-18 06:30N 33°00' E 033°41'0 0.1
2018-Apr-18 06:01N 33°00' E 033°41'0 0.0
2018-Apr-18 05:14N 33°00' E 033°41'0 0.0
2018-Apr-18 05:00N 33°00' E 033°41'0 0.0
2018-Apr-18 04:30N 33°00' E 033°41'0 0.0
2018-Apr-18 04:00N 33°00' E 033°41'0 0.0
2018-Apr-18 03:30N 33°00' E 033°41'0 0.0
2018-Apr-18 03:00N 33°00' E 033°41'0 0.0
2018-Apr-18 02:27N 33°00' E 033°41'0 0.0
2018-Apr-18 02:01N 33°00' E 033°41'0 0.2
2018-Apr-18 01:11N 33°00' E 033°41'0 0.1
2018-Apr-18 00:58N 33°00' E 033°41'0 0.0
2018-Apr-18 00:29N 33°00' E 033°41'0 0.0
2018-Apr-18 00:00N 33°00' E 033°41'0 0.1
2018-Apr-17 23:28N 33°00' E 033°41'0 0.1
2018-Apr-17 23:00N 33°00' E 033°41'0 0.0
2018-Apr-17 22:26N 33°00' E 033°41'0 0.0
2018-Apr-17 21:59N 33°00' E 033°41'0 0.1
2018-Apr-17 21:13N 33°00' E 033°41'0 0.6
2018-Apr-17 21:00N 33°00' E 033°40'0 0.1
2018-Apr-17 19:34N 33°00' E 033°40'0 0.1
2018-Apr-17 19:30N 33°00' E 033°40'0 0.3
2018-Apr-17 19:00N 33°00' E 033°40'0 0.1
2018-Apr-17 18:12N 33°00' E 033°40'0 0.3
2018-Apr-17 17:56N 33°00' E 033°40'1 1.2
2018-Apr-17 17:25N 32°60' E 033°41'0 0.6
2018-Apr-17 17:00N 32°60' E 033°41'0 0.0
2018-Apr-17 16:30N 32°60' E 033°41'0 0.0
2018-Apr-17 16:01N 32°60' E 033°41'0 0.2
2018-Apr-17 15:29N 32°60' E 033°41'0 0.7
2018-Apr-17 14:58N 33°00' E 033°41'0 0.1
2018-Apr-17 14:19N 33°00' E 033°41'0 0.0
2018-Apr-17 13:45N 33°00' E 033°41'0 0.1
2018-Apr-17 13:26N 33°00' E 033°41'0 0.0
2018-Apr-17 13:00N 33°00' E 033°41'0 0.0
2018-Apr-17 11:57N 33°00' E 033°41'0 0.0
2018-Apr-17 11:30N 33°00' E 033°41'0 0.0
2018-Apr-17 11:00N 33°00' E 033°41'0 0.0
2018-Apr-17 10:30N 33°00' E 033°41'0 0.0
2018-Apr-17 09:14N 33°00' E 033°41'0 0.0
2018-Apr-17 08:38N 33°00' E 033°41'0 0.3
2018-Apr-17 08:30N 33°00' E 033°41'0 0.0
2018-Apr-17 06:27N 33°00' E 033°41'0 0.0
2018-Apr-17 04:58N 33°00' E 033°41'0 0.0
2018-Apr-17 04:30N 33°00' E 033°41'0 0.0
2018-Apr-17 03:59N 33°00' E 033°41'0 0.0
2018-Apr-17 03:29N 33°00' E 033°41'0 0.0
2018-Apr-17 01:24N 33°00' E 033°41'0 0.0
2018-Apr-17 00:46N 33°00' E 033°41'0 0.0
2018-Apr-17 00:28N 33°00' E 033°41'0 0.0
2018-Apr-16 23:54N 33°00' E 033°41'0 0.0
2018-Apr-16 21:11N 33°00' E 033°41'0 0.1
2018-Apr-16 21:00N 33°00' E 033°41'0 0.2
2018-Apr-16 20:30N 33°00' E 033°41'0 0.2
2018-Apr-16 20:00N 33°00' E 033°41'0 0.0
2018-Apr-16 19:29N 33°00' E 033°41'0 0.0
2018-Apr-16 18:59N 33°00' E 033°41'0 0.0
2018-Apr-16 18:30N 33°00' E 033°41'0 0.0
2018-Apr-16 18:01N 33°00' E 033°41'0 0.0
2018-Apr-16 17:28N 33°00' E 033°41'0 0.0
2018-Apr-16 17:00N 33°00' E 033°41'0 0.1
2018-Apr-16 16:30N 33°00' E 033°41'0 0.1
2018-Apr-16 16:00N 33°00' E 033°41'0 0.0
2018-Apr-16 15:30N 33°00' E 033°41'0 0.0
2018-Apr-16 14:58N 33°00' E 033°41'0 0.0
2018-Apr-16 13:15N 33°00' E 033°41'0 0.0
2018-Apr-16 12:56N 33°00' E 033°41'0 0.0
2018-Apr-16 12:16N 33°00' E 033°41'0 0.1
2018-Apr-16 11:58N 33°00' E 033°41'0 0.0
2018-Apr-16 10:41N 33°00' E 033°41'0 0.1
2018-Apr-16 10:30N 33°00' E 033°41'0 0.0
2018-Apr-16 00:03N 33°00' E 033°41'0 0.0
2018-Apr-16 00:00N 33°00' E 033°41'0 0.0
2018-Apr-14 17:00N 32°60' E 033°40'0 0.0
2018-Apr-14 16:30N 32°60' E 033°40'0 0.0
2018-Apr-14 15:56N 32°60' E 033°40'  
Track history (hours):
 
Tides and Currents Weather Stations Pressure Air Temp Water Temp Dewpoint Dewpoint Depression Visibility Wind Speed Wind Dir Waves Ship Positions

Andrea Chouest

Owner: Nautical Solutions L.L.C., Galliano, LA. More information available from US FCC via Universal Licensing System and Coast Guard Vessel Documentation Center.

Last reported at 2018-Apr-24 13:01 UTC. Time now 2018-Apr-26 11:44 UTC.
Position N 32°51' E 034°60'.

Length 85 m; draft 3.7 m.

Type: Cargo ship. MMSI: 368422000.

Date/timePositionNaut miles runAvg speedWind from/ knotsBaromVisibWave heightAir tempDewpointWater temp
2018-Apr-24 13:01N 32°51' E 034°60'010.1
2018-Apr-24 13:00N 32°51' E 034°60'5 9.3
2018-Apr-24 12:26N 32°52' E 034°53'3 7.5
2018-Apr-24 12:00N 32°53' E 034°50'4 8.7
2018-Apr-24 11:30N 32°53' E 034°44'510.3
2018-Apr-24 11:00N 32°54' E 034°38'510.5
2018-Apr-24 10:29N 32°55' E 034°32'2510.6
2018-Apr-24 08:09N 32°58' E 034°03'1110.4
2018-Apr-24 07:05N 32°59' E 033°50'110.4
2018-Apr-24 07:00N 32°59' E 033°49'7 4.5
2018-Apr-24 05:28N 33°00' E 033°41'0 0.0
2018-Apr-24 05:00N 33°00' E 033°41'0 0.1
2018-Apr-24 04:30N 33°00' E 033°41'0 0.1
2018-Apr-24 03:30N 32°60' E 033°40'0 0.0
2018-Apr-24 02:19N 32°60' E 033°40'0 0.0
2018-Apr-24 02:00N 32°60' E 033°40'0 0.0
2018-Apr-24 01:29N 32°60' E 033°40'0 0.0
2018-Apr-24 01:00N 32°60' E 033°40'0 0.0
2018-Apr-24 00:30N 32°60' E 033°40'0 0.0
2018-Apr-24 00:00N 32°60' E 033°40'0 0.0
2018-Apr-23 23:30N 32°60' E 033°40'0 0.0
2018-Apr-23 15:10N 33°00' E 033°40'0 0.0
2018-Apr-23 15:00N 33°00' E 033°40'0 0.0
2018-Apr-23 14:24N 33°00' E 033°40'54 2.5
2018-Apr-22 17:16N 32°54' E 034°44'2 9.3
2018-Apr-22 17:00N 32°53' E 034°47'5 9.3
2018-Apr-22 16:30N 32°53' E 034°52'5 9.3
2018-Apr-22 16:00N 32°52' E 034°58'  
2018-Apr-19 19:25N 32°51' E 034°60'4 8.5
2018-Apr-19 18:59N 32°53' E 034°56'4 8.7
2018-Apr-19 18:30N 32°54' E 034°51'5 8.6
2018-Apr-19 17:58N 32°55' E 034°45'4 8.6
2018-Apr-19 17:29N 32°55' E 034°40'5 8.7
2018-Apr-19 16:53N 32°56' E 034°34'3 8.6
2018-Apr-19 16:29N 32°56' E 034°30'5 9.4
2018-Apr-19 16:00N 32°57' E 034°25'510.4
2018-Apr-19 15:30N 32°58' E 034°19'510.4
2018-Apr-19 15:00N 32°59' E 034°13'510.4
2018-Apr-19 14:30N 32°60' E 034°07'610.4
2018-Apr-19 13:56N 33°00' E 033°60'410.3
2018-Apr-19 13:30N 33°01' E 033°54'510.1
2018-Apr-19 12:58N 33°00' E 033°48'4 8.6
2018-Apr-19 12:28N 32°60' E 033°43'2 3.8
2018-Apr-19 12:00N 33°00' E 033°41'0 0.2
2018-Apr-19 11:30N 33°00' E 033°41'0 0.0
2018-Apr-19 11:00N 33°00' E 033°41'0 0.0
2018-Apr-19 10:27N 33°00' E 033°41'0 0.0
2018-Apr-19 09:16N 33°00' E 033°41'0 0.2
2018-Apr-19 09:00N 33°00' E 033°41'0 0.1
2018-Apr-19 04:46N 33°00' E 033°41'0 0.0
2018-Apr-19 04:30N 33°00' E 033°41'0 0.0
2018-Apr-19 04:00N 33°00' E 033°41'0 0.1
2018-Apr-19 02:50N 33°00' E 033°41'0 0.0
2018-Apr-19 02:21N 33°00' E 033°41'0 0.0
2018-Apr-19 02:00N 33°00' E 033°41'0 0.0
2018-Apr-19 00:56N 33°00' E 033°41'0 0.0
2018-Apr-19 00:30N 33°00' E 033°41'0 0.0
2018-Apr-18 23:27N 33°00' E 033°41'0 0.0
2018-Apr-18 23:00N 33°00' E 033°41'0 0.0
2018-Apr-18 22:31N 33°00' E 033°41'0 0.0
2018-Apr-18 22:01N 33°00' E 033°41'0 0.0
2018-Apr-18 21:31N 33°00' E 033°41'0 0.0
2018-Apr-18 21:01N 33°00' E 033°41'0 0.0
2018-Apr-18 20:13N 33°00' E 033°41'0 0.1
2018-Apr-18 20:00N 33°00' E 033°41'0 0.0
2018-Apr-18 19:30N 33°00' E 033°41'0 0.0
2018-Apr-18 19:00N 33°00' E 033°41'0 0.0
2018-Apr-18 18:30N 33°00' E 033°41'0 0.0
2018-Apr-18 16:43N 33°00' E 033°41'0 0.1
2018-Apr-18 16:30N 33°00' E 033°41'0 0.0
2018-Apr-18 15:58N 33°00' E 033°41'0 0.1
2018-Apr-18 15:30N 33°00' E 033°41'0 0.1
2018-Apr-18 15:00N 33°00' E 033°41'0 0.3
2018-Apr-18 14:30N 33°00' E 033°41'0 0.3
2018-Apr-18 13:59N 33°00' E 033°41'0 0.0
2018-Apr-18 13:30N 33°00' E 033°41'0 0.0
2018-Apr-18 12:59N 33°00' E 033°41'0 0.1
2018-Apr-18 12:29N 33°00' E 033°41'0 0.1
2018-Apr-18 08:19N 33°00' E 033°41'0 0.0
2018-Apr-18 07:59N 33°00' E 033°41'0 0.2
2018-Apr-18 07:29N 33°00' E 033°41'0 0.2
2018-Apr-18 07:00N 33°00' E 033°41'0 0.0
2018-Apr-18 06:30N 33°00' E 033°41'0 0.1
2018-Apr-18 06:01N 33°00' E 033°41'0 0.0
2018-Apr-18 05:14N 33°00' E 033°41'0 0.0
2018-Apr-18 05:00N 33°00' E 033°41'0 0.0
2018-Apr-18 04:30N 33°00' E 033°41'0 0.0
2018-Apr-18 04:00N 33°00' E 033°41'0 0.0
2018-Apr-18 03:30N 33°00' E 033°41'0 0.0
2018-Apr-18 03:00N 33°00' E 033°41'0 0.0
2018-Apr-18 02:27N 33°00' E 033°41'0 0.0
2018-Apr-18 02:01N 33°00' E 033°41'0 0.2
2018-Apr-18 01:11N 33°00' E 033°41'0 0.1
2018-Apr-18 00:58N 33°00' E 033°41'0 0.0
2018-Apr-18 00:29N 33°00' E 033°41'0 0.0
2018-Apr-18 00:00N 33°00' E 033°41'0 0.1
2018-Apr-17 23:28N 33°00' E 033°41'0 0.1
2018-Apr-17 23:00N 33°00' E 033°41'0 0.0
2018-Apr-17 22:26N 33°00' E 033°41'0 0.0
2018-Apr-17 21:59N 33°00' E 033°41'0 0.1
2018-Apr-17 21:13N 33°00' E 033°41'0 0.6
2018-Apr-17 21:00N 33°00' E 033°40'0 0.1
2018-Apr-17 19:34N 33°00' E 033°40'0 0.1
2018-Apr-17 19:30N 33°00' E 033°40'0 0.3
2018-Apr-17 19:00N 33°00' E 033°40'0 0.1
2018-Apr-17 18:12N 33°00' E 033°40'0 0.3
2018-Apr-17 17:56N 33°00' E 033°40'1 1.2
2018-Apr-17 17:25N 32°60' E 033°41'0 0.6
2018-Apr-17 17:00N 32°60' E 033°41'0 0.0
2018-Apr-17 16:30N 32°60' E 033°41'0 0.0
2018-Apr-17 16:01N 32°60' E 033°41'0 0.2
2018-Apr-17 15:29N 32°60' E 033°41'0 0.7
2018-Apr-17 14:58N 33°00' E 033°41'0 0.1
2018-Apr-17 14:19N 33°00' E 033°41'0 0.0
2018-Apr-17 13:45N 33°00' E 033°41'0 0.1
2018-Apr-17 13:26N 33°00' E 033°41'0 0.0
2018-Apr-17 13:00N 33°00' E 033°41'0 0.0
2018-Apr-17 11:57N 33°00' E 033°41'0 0.0
2018-Apr-17 11:30N 33°00' E 033°41'0 0.0
2018-Apr-17 11:00N 33°00' E 033°41'0 0.0
2018-Apr-17 10:30N 33°00' E 033°41'0 0.0
2018-Apr-17 09:14N 33°00' E 033°41'0 0.0
2018-Apr-17 08:38N 33°00' E 033°41'0 0.3
2018-Apr-17 08:30N 33°00' E 033°41'0 0.0
2018-Apr-17 06:27N 33°00' E 033°41'0 0.0
2018-Apr-17 04:58N 33°00' E 033°41'0 0.0
2018-Apr-17 04:30N 33°00' E 033°41'0 0.0
2018-Apr-17 03:59N 33°00' E 033°41'0 0.0
2018-Apr-17 03:29N 33°00' E 033°41'0 0.0
2018-Apr-17 01:24N 33°00' E 033°41'0 0.0
2018-Apr-17 00:46N 33°00' E 033°41'0 0.0
2018-Apr-17 00:28N 33°00' E 033°41'0 0.0
2018-Apr-16 23:54N 33°00' E 033°41'0 0.0
2018-Apr-16 21:11N 33°00' E 033°41'0 0.1
2018-Apr-16 21:00N 33°00' E 033°41'0 0.2
2018-Apr-16 20:30N 33°00' E 033°41'0 0.2
2018-Apr-16 20:00N 33°00' E 033°41'0 0.0
2018-Apr-16 19:29N 33°00' E 033°41'0 0.0
2018-Apr-16 18:59N 33°00' E 033°41'0 0.0
2018-Apr-16 18:30N 33°00' E 033°41'0 0.0
2018-Apr-16 18:01N 33°00' E 033°41'0 0.0
2018-Apr-16 17:28N 33°00' E 033°41'0 0.0
2018-Apr-16 17:00N 33°00' E 033°41'0 0.1
2018-Apr-16 16:30N 33°00' E 033°41'0 0.1
2018-Apr-16 16:00N 33°00' E 033°41'0 0.0
2018-Apr-16 15:30N 33°00' E 033°41'0 0.0
2018-Apr-16 14:58N 33°00' E 033°41'0 0.0
2018-Apr-16 13:15N 33°00' E 033°41'0 0.0
2018-Apr-16 12:56N 33°00' E 033°41'0 0.0
2018-Apr-16 12:16N 33°00' E 033°41'0 0.1
2018-Apr-16 11:58N 33°00' E 033°41'0 0.0
2018-Apr-16 10:41N 33°00' E 033°41'0 0.1
2018-Apr-16 10:30N 33°00' E 033°41'0 0.0
2018-Apr-16 00:03N 33°00' E 033°41'0 0.0
2018-Apr-16 00:00N 33°00' E 033°41'0 0.0
2018-Apr-14 17:00N 32°60' E 033°40'0 0.0
2018-Apr-14 16:30N 32°60' E 033°40'0 0.0
2018-Apr-14 15:56N 32°60' E 033°40'  

Dump ship's entire track history